sensor_id;sensor_type;location;lat;lon;timestamp;temperature;humidity
66871;DHT22;53780;44.998;9.926;2022-09-29T00:00:30;15.29;79.96
66871;DHT22;53780;44.998;9.926;2022-09-29T00:03:35;15.23;79.96
66871;DHT22;53780;44.998;9.926;2022-09-29T00:06:39;15.09;80.43
66871;DHT22;53780;44.998;9.926;2022-09-29T00:09:43;14.92;80.67
66871;DHT22;53780;44.998;9.926;2022-09-29T00:12:47;14.82;80.79
66871;DHT22;53780;44.998;9.926;2022-09-29T00:15:59;14.78;81.14
66871;DHT22;53780;44.998;9.926;2022-09-29T00:19:03;14.75;81.24
66871;DHT22;53780;44.998;9.926;2022-09-29T00:22:09;14.75;81.22
66871;DHT22;53780;44.998;9.926;2022-09-29T00:25:13;14.74;81.17
66871;DHT22;53780;44.998;9.926;2022-09-29T00:28:17;14.64;81.05
66871;DHT22;53780;44.998;9.926;2022-09-29T00:31:22;14.57;81.43
66871;DHT22;53780;44.998;9.926;2022-09-29T00:34:27;14.54;81.49
66871;DHT22;53780;44.998;9.926;2022-09-29T00:37:30;14.51;81.55
66871;DHT22;53780;44.998;9.926;2022-09-29T00:40:34;14.47;81.59
66871;DHT22;53780;44.998;9.926;2022-09-29T00:47:04;14.33;81.91
66871;DHT22;53780;44.998;9.926;2022-09-29T00:50:14;14.30;81.78
66871;DHT22;53780;44.998;9.926;2022-09-29T00:53:21;14.26;80.19
66871;DHT22;53780;44.998;9.926;2022-09-29T00:56:26;14.17;81.03
66871;DHT22;53780;44.998;9.926;2022-09-29T00:59:38;14.20;81.70
66871;DHT22;53780;44.998;9.926;2022-09-29T01:03:04;14.23;81.67
66871;DHT22;53780;44.998;9.926;2022-09-29T01:06:15;14.17;81.78
66871;DHT22;53780;44.998;9.926;2022-09-29T01:09:26;14.16;81.80
66871;DHT22;53780;44.998;9.926;2022-09-29T01:12:31;14.14;81.97
66871;DHT22;53780;44.998;9.926;2022-09-29T01:15:35;14.19;81.97
66871;DHT22;53780;44.998;9.926;2022-09-29T01:18:40;14.24;82.06
66871;DHT22;53780;44.998;9.926;2022-09-29T01:31:56;14.21;82.19
66871;DHT22;53780;44.998;9.926;2022-09-29T01:38:52;13.98;83.87
66871;DHT22;53780;44.998;9.926;2022-09-29T01:45:40;14.13;83.87
66871;DHT22;53780;44.998;9.926;2022-09-29T01:48:49;14.10;83.22
66871;DHT22;53780;44.998;9.926;2022-09-29T01:51:59;14.05;83.11
66871;DHT22;53780;44.998;9.926;2022-09-29T01:55:09;13.99;83.43
66871;DHT22;53780;44.998;9.926;2022-09-29T01:58:22;13.93;83.98
66871;DHT22;53780;44.998;9.926;2022-09-29T02:01:33;13.89;84.33
66871;DHT22;53780;44.998;9.926;2022-09-29T02:04:50;13.87;84.23
66871;DHT22;53780;44.998;9.926;2022-09-29T02:08:00;13.78;84.53
66871;DHT22;53780;44.998;9.926;2022-09-29T02:11:07;13.74;84.89
66871;DHT22;53780;44.998;9.926;2022-09-29T02:14:19;13.78;84.60
66871;DHT22;53780;44.998;9.926;2022-09-29T02:17:36;13.85;84.30
66871;DHT22;53780;44.998;9.926;2022-09-29T02:20:42;13.85;84.15
66871;DHT22;53780;44.998;9.926;2022-09-29T02:23:46;13.85;84.19
66871;DHT22;53780;44.998;9.926;2022-09-29T02:26:50;13.86;83.95
66871;DHT22;53780;44.998;9.926;2022-09-29T02:29:55;13.92;83.64
66871;DHT22;53780;44.998;9.926;2022-09-29T02:33:00;13.95;83.01
66871;DHT22;53780;44.998;9.926;2022-09-29T02:49:31;13.81;83.27
66871;DHT22;53780;44.998;9.926;2022-09-29T02:56:48;13.66;83.56
66871;DHT22;53780;44.998;9.926;2022-09-29T03:00:10;13.59;83.69
66871;DHT22;53780;44.998;9.926;2022-09-29T03:03:14;13.69;83.43
66871;DHT22;53780;44.998;9.926;2022-09-29T03:06:18;13.72;83.23
66871;DHT22;53780;44.998;9.926;2022-09-29T03:09:24;13.74;83.21
66871;DHT22;53780;44.998;9.926;2022-09-29T03:12:27;13.66;83.44
66871;DHT22;53780;44.998;9.926;2022-09-29T03:15:31;13.64;83.77
66871;DHT22;53780;44.998;9.926;2022-09-29T03:18:35;13.68;83.86
66871;DHT22;53780;44.998;9.926;2022-09-29T03:21:39;13.72;83.90
66871;DHT22;53780;44.998;9.926;2022-09-29T03:24:43;13.76;83.57
66871;DHT22;53780;44.998;9.926;2022-09-29T03:27:47;13.72;82.24
66871;DHT22;53780;44.998;9.926;2022-09-29T03:30:52;13.66;82.01
66871;DHT22;53780;44.998;9.926;2022-09-29T03:33:58;13.64;81.98
66871;DHT22;53780;44.998;9.926;2022-09-29T03:37:03;13.61;82.48
66871;DHT22;53780;44.998;9.926;2022-09-29T03:40:07;13.64;82.31
66871;DHT22;53780;44.998;9.926;2022-09-29T03:43:11;13.66;82.66
66871;DHT22;53780;44.998;9.926;2022-09-29T03:46:15;13.64;82.58
66871;DHT22;53780;44.998;9.926;2022-09-29T03:49:19;13.57;82.84
66871;DHT22;53780;44.998;9.926;2022-09-29T03:52:22;13.50;83.06
66871;DHT22;53780;44.998;9.926;2022-09-29T03:55:28;13.44;82.67
66871;DHT22;53780;44.998;9.926;2022-09-29T03:58:32;13.40;82.49
66871;DHT22;53780;44.998;9.926;2022-09-29T04:01:37;13.37;82.56
66871;DHT22;53780;44.998;9.926;2022-09-29T04:04:41;13.33;82.70
66871;DHT22;53780;44.998;9.926;2022-09-29T04:07:45;13.36;82.99
66871;DHT22;53780;44.998;9.926;2022-09-29T04:10:49;13.34;83.04
66871;DHT22;53780;44.998;9.926;2022-09-29T04:13:52;13.34;83.29
66871;DHT22;53780;44.998;9.926;2022-09-29T04:16:56;13.31;83.18
66871;DHT22;53780;44.998;9.926;2022-09-29T04:20:00;13.28;83.70
66871;DHT22;53780;44.998;9.926;2022-09-29T04:23:04;13.36;83.64
66871;DHT22;53780;44.998;9.926;2022-09-29T04:26:09;13.38;82.85
66871;DHT22;53780;44.998;9.926;2022-09-29T04:29:13;13.34;83.01
66871;DHT22;53780;44.998;9.926;2022-09-29T04:32:17;13.24;82.90
66871;DHT22;53780;44.998;9.926;2022-09-29T04:35:21;13.21;83.26
66871;DHT22;53780;44.998;9.926;2022-09-29T04:38:27;13.16;83.30
66871;DHT22;53780;44.998;9.926;2022-09-29T04:41:31;13.16;83.91
66871;DHT22;53780;44.998;9.926;2022-09-29T04:44:37;13.18;84.47
66871;DHT22;53780;44.998;9.926;2022-09-29T04:47:41;13.21;84.49
66871;DHT22;53780;44.998;9.926;2022-09-29T04:50:45;13.30;84.93
66871;DHT22;53780;44.998;9.926;2022-09-29T04:53:48;13.37;85.17
66871;DHT22;53780;44.998;9.926;2022-09-29T04:56:52;13.43;85.27
66871;DHT22;53780;44.998;9.926;2022-09-29T04:59:56;13.50;85.07
66871;DHT22;53780;44.998;9.926;2022-09-29T05:03:00;13.55;85.34
66871;DHT22;53780;44.998;9.926;2022-09-29T05:06:04;13.58;85.03
66871;DHT22;53780;44.998;9.926;2022-09-29T05:09:08;13.64;84.85
66871;DHT22;53780;44.998;9.926;2022-09-29T05:12:12;13.66;84.45
66871;DHT22;53780;44.998;9.926;2022-09-29T05:15:18;13.71;84.59
66871;DHT22;53780;44.998;9.926;2022-09-29T05:18:23;13.69;84.26
66871;DHT22;53780;44.998;9.926;2022-09-29T05:21:27;13.69;84.45
66871;DHT22;53780;44.998;9.926;2022-09-29T05:24:31;13.65;84.32
66871;DHT22;53780;44.998;9.926;2022-09-29T05:27:35;13.59;83.70
66871;DHT22;53780;44.998;9.926;2022-09-29T05:30:40;13.59;83.19
66871;DHT22;53780;44.998;9.926;2022-09-29T05:33:44;13.58;83.57
66871;DHT22;53780;44.998;9.926;2022-09-29T05:36:48;13.54;83.38
66871;DHT22;53780;44.998;9.926;2022-09-29T05:39:52;13.57;83.30
66871;DHT22;53780;44.998;9.926;2022-09-29T05:42:57;13.53;83.64
66871;DHT22;53780;44.998;9.926;2022-09-29T05:46:04;13.53;83.90
66871;DHT22;53780;44.998;9.926;2022-09-29T05:49:08;13.55;84.30
66871;DHT22;53780;44.998;9.926;2022-09-29T05:52:14;13.59;84.15
66871;DHT22;53780;44.998;9.926;2022-09-29T05:55:18;13.79;84.36
66871;DHT22;53780;44.998;9.926;2022-09-29T05:58:21;13.98;84.36
66871;DHT22;53780;44.998;9.926;2022-09-29T06:01:25;14.03;83.81
66871;DHT22;53780;44.998;9.926;2022-09-29T06:04:29;14.09;83.38
66871;DHT22;53780;44.998;9.926;2022-09-29T06:07:33;14.10;82.75
66871;DHT22;53780;44.998;9.926;2022-09-29T06:10:37;13.98;82.79
66871;DHT22;53780;44.998;9.926;2022-09-29T06:13:46;14.17;82.77
66871;DHT22;53780;44.998;9.926;2022-09-29T06:16:49;14.61;81.79
66871;DHT22;53780;44.998;9.926;2022-09-29T06:19:53;14.57;81.75
66871;DHT22;53780;44.998;9.926;2022-09-29T06:22:57;14.49;82.59
66871;DHT22;53780;44.998;9.926;2022-09-29T06:26:04;15.30;81.86
66871;DHT22;53780;44.998;9.926;2022-09-29T06:29:08;16.43;75.68
66871;DHT22;53780;44.998;9.926;2022-09-29T06:32:13;15.88;78.63
66871;DHT22;53780;44.998;9.926;2022-09-29T06:35:16;15.70;79.12
66871;DHT22;53780;44.998;9.926;2022-09-29T06:38:39;15.65;79.64
66871;DHT22;53780;44.998;9.926;2022-09-29T06:41:44;17.67;75.76
66871;DHT22;53780;44.998;9.926;2022-09-29T06:44:54;19.55;67.17
66871;DHT22;53780;44.998;9.926;2022-09-29T06:47:59;20.80;63.58
66871;DHT22;53780;44.998;9.926;2022-09-29T06:51:07;20.66;63.31
66871;DHT22;53780;44.998;9.926;2022-09-29T06:54:12;19.73;66.63
66871;DHT22;53780;44.998;9.926;2022-09-29T06:57:16;19.65;66.91
66871;DHT22;53780;44.998;9.926;2022-09-29T07:00:21;19.66;68.04
66871;DHT22;53780;44.998;9.926;2022-09-29T07:03:25;19.45;67.72
66871;DHT22;53780;44.998;9.926;2022-09-29T07:06:29;19.26;69.34
66871;DHT22;53780;44.998;9.926;2022-09-29T07:09:33;19.33;69.38
66871;DHT22;53780;44.998;9.926;2022-09-29T07:12:37;19.55;67.03
66871;DHT22;53780;44.998;9.926;2022-09-29T07:15:41;19.77;67.32
66871;DHT22;53780;44.998;9.926;2022-09-29T07:18:45;19.91;65.64
66871;DHT22;53780;44.998;9.926;2022-09-29T07:21:49;19.89;66.12
66871;DHT22;53780;44.998;9.926;2022-09-29T07:24:54;19.98;66.18
66871;DHT22;53780;44.998;9.926;2022-09-29T07:27:58;20.03;65.04
66871;DHT22;53780;44.998;9.926;2022-09-29T07:31:05;20.00;65.59
66871;DHT22;53780;44.998;9.926;2022-09-29T07:34:10;19.93;67.05
66871;DHT22;53780;44.998;9.926;2022-09-29T07:37:14;20.27;67.27
66871;DHT22;53780;44.998;9.926;2022-09-29T07:40:19;20.59;64.18
66871;DHT22;53780;44.998;9.926;2022-09-29T07:43:23;20.48;63.25
66871;DHT22;53780;44.998;9.926;2022-09-29T07:46:27;20.18;65.48
66871;DHT22;53780;44.998;9.926;2022-09-29T07:49:31;20.42;64.52
66871;DHT22;53780;44.998;9.926;2022-09-29T07:52:35;20.72;64.19
66871;DHT22;53780;44.998;9.926;2022-09-29T07:55:39;20.66;64.05
66871;DHT22;53780;44.998;9.926;2022-09-29T07:58:47;20.51;63.84
66871;DHT22;53780;44.998;9.926;2022-09-29T08:01:52;20.63;64.27
66871;DHT22;53780;44.998;9.926;2022-09-29T08:04:56;20.72;63.76
66871;DHT22;53780;44.998;9.926;2022-09-29T08:08:03;20.42;64.28
66871;DHT22;53780;44.998;9.926;2022-09-29T08:11:11;20.15;65.86
66871;DHT22;53780;44.998;9.926;2022-09-29T08:14:15;20.28;65.88
66871;DHT22;53780;44.998;9.926;2022-09-29T08:17:19;20.61;64.76
66871;DHT22;53780;44.998;9.926;2022-09-29T08:20:23;20.75;65.10
66871;DHT22;53780;44.998;9.926;2022-09-29T08:23:30;20.68;64.11
66871;DHT22;53780;44.998;9.926;2022-09-29T08:26:37;20.86;64.78
66871;DHT22;53780;44.998;9.926;2022-09-29T08:29:43;21.04;64.31
66871;DHT22;53780;44.998;9.926;2022-09-29T08:32:53;21.08;63.53
66871;DHT22;53780;44.998;9.926;2022-09-29T08:35:59;21.23;63.24
66871;DHT22;53780;44.998;9.926;2022-09-29T08:39:03;20.94;63.73
66871;DHT22;53780;44.998;9.926;2022-09-29T08:45:32;20.45;65.47
66871;DHT22;53780;44.998;9.926;2022-09-29T08:48:41;20.75;65.79
66871;DHT22;53780;44.998;9.926;2022-09-29T08:51:51;21.21;63.61
66871;DHT22;53780;44.998;9.926;2022-09-29T08:58:19;21.04;64.64
66871;DHT22;53780;44.998;9.926;2022-09-29T09:21:42;21.48;62.23
66871;DHT22;53780;44.998;9.926;2022-09-29T09:31:22;22.07;61.67
66871;DHT22;53780;44.998;9.926;2022-09-29T09:34:38;22.13;61.09
66871;DHT22;53780;44.998;9.926;2022-09-29T09:37:46;22.34;61.54
66871;DHT22;53780;44.998;9.926;2022-09-29T09:40:54;22.17;61.77
66871;DHT22;53780;44.998;9.926;2022-09-29T09:44:18;22.40;62.29
66871;DHT22;53780;44.998;9.926;2022-09-29T09:47:28;22.75;61.26
66871;DHT22;53780;44.998;9.926;2022-09-29T09:50:39;22.89;59.73
66871;DHT22;53780;44.998;9.926;2022-09-29T09:53:48;22.99;60.69
66871;DHT22;53780;44.998;9.926;2022-09-29T10:00:30;23.19;58.78
66871;DHT22;53780;44.998;9.926;2022-09-29T10:03:37;23.46;60.13
66871;DHT22;53780;44.998;9.926;2022-09-29T10:06:41;23.65;58.47
66871;DHT22;53780;44.998;9.926;2022-09-29T10:09:46;23.78;58.11
66871;DHT22;53780;44.998;9.926;2022-09-29T10:16:49;24.08;55.32
66871;DHT22;53780;44.998;9.926;2022-09-29T10:23:18;24.23;55.29
66871;DHT22;53780;44.998;9.926;2022-09-29T10:26:24;24.47;54.09
66871;DHT22;53780;44.998;9.926;2022-09-29T10:29:40;24.60;55.27
66871;DHT22;53780;44.998;9.926;2022-09-29T10:32:45;24.80;55.17
66871;DHT22;53780;44.998;9.926;2022-09-29T10:36:03;24.95;53.47
66871;DHT22;53780;44.998;9.926;2022-09-29T10:39:38;24.91;53.90
66871;DHT22;53780;44.998;9.926;2022-09-29T10:42:45;25.05;52.43
66871;DHT22;53780;44.998;9.926;2022-09-29T10:45:51;25.07;52.47
66871;DHT22;53780;44.998;9.926;2022-09-29T10:52:24;25.54;52.44
66871;DHT22;53780;44.998;9.926;2022-09-29T10:55:32;25.39;49.73
66871;DHT22;53780;44.998;9.926;2022-09-29T10:58:39;25.14;50.07
66871;DHT22;53780;44.998;9.926;2022-09-29T11:01:54;25.43;51.61
66871;DHT22;53780;44.998;9.926;2022-09-29T11:05:02;25.83;50.94
66871;DHT22;53780;44.998;9.926;2022-09-29T11:08:10;26.29;48.76
66871;DHT22;53780;44.998;9.926;2022-09-29T11:11:26;26.18;47.99
66871;DHT22;53780;44.998;9.926;2022-09-29T11:14:47;26.55;48.74
66871;DHT22;53780;44.998;9.926;2022-09-29T11:17:52;26.42;48.65
66871;DHT22;53780;44.998;9.926;2022-09-29T11:24:54;26.84;47.81
66871;DHT22;53780;44.998;9.926;2022-09-29T11:31:52;27.11;46.85
66871;DHT22;53780;44.998;9.926;2022-09-29T11:35:02;27.63;46.96
66871;DHT22;53780;44.998;9.926;2022-09-29T11:45:12;27.04;43.84
66871;DHT22;53780;44.998;9.926;2022-09-29T12:03:03;25.94;48.86
66871;DHT22;53780;44.998;9.926;2022-09-29T12:13:05;26.12;48.74
66871;DHT22;53780;44.998;9.926;2022-09-29T12:16:16;25.73;49.12
66871;DHT22;53780;44.998;9.926;2022-09-29T12:19:24;25.73;50.79
66871;DHT22;53780;44.998;9.926;2022-09-29T12:22:33;25.84;50.63
66871;DHT22;53780;44.998;9.926;2022-09-29T12:25:51;25.74;48.81
66871;DHT22;53780;44.998;9.926;2022-09-29T12:32:44;25.11;47.99
66871;DHT22;53780;44.998;9.926;2022-09-29T12:36:17;25.04;50.85
66871;DHT22;53780;44.998;9.926;2022-09-29T12:39:57;25.14;50.53
66871;DHT22;53780;44.998;9.926;2022-09-29T12:43:28;24.82;49.21
66871;DHT22;53780;44.998;9.926;2022-09-29T12:46:50;24.72;50.32
66871;DHT22;53780;44.998;9.926;2022-09-29T13:00:15;24.54;52.43
66871;DHT22;53780;44.998;9.926;2022-09-29T13:04:05;24.56;51.87
66871;DHT22;53780;44.998;9.926;2022-09-29T13:10:32;24.59;53.17
66871;DHT22;53780;44.998;9.926;2022-09-29T13:13:55;24.74;52.43
66871;DHT22;53780;44.998;9.926;2022-09-29T13:17:18;24.67;52.74
66871;DHT22;53780;44.998;9.926;2022-09-29T13:30:34;24.60;56.73
66871;DHT22;53780;44.998;9.926;2022-09-29T13:33:40;24.67;56.26
66871;DHT22;53780;44.998;9.926;2022-09-29T13:36:49;24.54;56.25
66871;DHT22;53780;44.998;9.926;2022-09-29T13:40:24;24.41;56.80
66871;DHT22;53780;44.998;9.926;2022-09-29T13:46:45;24.34;58.08
66871;DHT22;53780;44.998;9.926;2022-09-29T13:49:49;24.44;58.22
66871;DHT22;53780;44.998;9.926;2022-09-29T13:52:53;24.37;57.10
66871;DHT22;53780;44.998;9.926;2022-09-29T13:59:13;24.39;58.06
66871;DHT22;53780;44.998;9.926;2022-09-29T14:02:37;24.22;56.01
66871;DHT22;53780;44.998;9.926;2022-09-29T14:05:44;24.17;56.98
66871;DHT22;53780;44.998;9.926;2022-09-29T14:09:15;24.12;56.97
66871;DHT22;53780;44.998;9.926;2022-09-29T14:12:23;24.05;57.90
66871;DHT22;53780;44.998;9.926;2022-09-29T14:15:44;23.86;57.85
66871;DHT22;53780;44.998;9.926;2022-09-29T14:19:02;23.71;56.81
66871;DHT22;53780;44.998;9.926;2022-09-29T14:25:50;23.67;56.21
66871;DHT22;53780;44.998;9.926;2022-09-29T14:28:56;23.67;56.39
66871;DHT22;53780;44.998;9.926;2022-09-29T14:32:02;23.64;55.13
66871;DHT22;53780;44.998;9.926;2022-09-29T14:35:40;23.55;55.40
66871;DHT22;53780;44.998;9.926;2022-09-29T14:38:48;23.47;55.00
66871;DHT22;53780;44.998;9.926;2022-09-29T14:41:52;23.50;56.68
66871;DHT22;53780;44.998;9.926;2022-09-29T14:44:57;23.53;56.48
66871;DHT22;53780;44.998;9.926;2022-09-29T14:48:27;23.58;56.23
66871;DHT22;53780;44.998;9.926;2022-09-29T14:52:15;23.69;56.35
66871;DHT22;53780;44.998;9.926;2022-09-29T14:55:27;23.72;55.82
66871;DHT22;53780;44.998;9.926;2022-09-29T15:05:44;23.98;54.55
66871;DHT22;53780;44.998;9.926;2022-09-29T15:09:12;24.09;54.89
66871;DHT22;53780;44.998;9.926;2022-09-29T15:12:30;24.10;53.20
66871;DHT22;53780;44.998;9.926;2022-09-29T15:15:36;23.90;52.27
66871;DHT22;53780;44.998;9.926;2022-09-29T15:22:10;23.74;53.39
66871;DHT22;53780;44.998;9.926;2022-09-29T15:25:35;23.72;53.57
66871;DHT22;53780;44.998;9.926;2022-09-29T15:28:41;23.69;52.27
66871;DHT22;53780;44.998;9.926;2022-09-29T15:31:46;23.65;53.11
66871;DHT22;53780;44.998;9.926;2022-09-29T15:34:53;23.57;51.24
66871;DHT22;53780;44.998;9.926;2022-09-29T15:41:15;23.37;51.67
66871;DHT22;53780;44.998;9.926;2022-09-29T15:44:19;23.43;53.81
66871;DHT22;53780;44.998;9.926;2022-09-29T15:47:28;23.40;53.21
66871;DHT22;53780;44.998;9.926;2022-09-29T15:50:41;23.44;55.05
66871;DHT22;53780;44.998;9.926;2022-09-29T15:53:46;23.46;53.22
66871;DHT22;53780;44.998;9.926;2022-09-29T15:56:50;23.36;51.75
66871;DHT22;53780;44.998;9.926;2022-09-29T16:03:50;23.26;53.78
66871;DHT22;53780;44.998;9.926;2022-09-29T16:06:56;23.10;54.09
66871;DHT22;53780;44.998;9.926;2022-09-29T16:10:15;23.05;46.24
66871;DHT22;53780;44.998;9.926;2022-09-29T16:13:23;22.99;46.26
66871;DHT22;53780;44.998;9.926;2022-09-29T16:16:33;23.00;46.98
66871;DHT22;53780;44.998;9.926;2022-09-29T16:19:41;22.76;57.50
66871;DHT22;53780;44.998;9.926;2022-09-29T16:22:48;22.52;58.97
66871;DHT22;53780;44.998;9.926;2022-09-29T16:26:50;22.25;59.93
66871;DHT22;53780;44.998;9.926;2022-09-29T16:29:35;22.04;59.53
66871;DHT22;53780;44.998;9.926;2022-09-29T16:32:39;21.89;59.92
66871;DHT22;53780;44.998;9.926;2022-09-29T16:38:56;21.48;60.57
66871;DHT22;53780;44.998;9.926;2022-09-29T16:42:02;21.31;61.68
66871;DHT22;53780;44.998;9.926;2022-09-29T16:45:13;21.28;60.65
66871;DHT22;53780;44.998;9.926;2022-09-29T16:48:20;21.17;60.84
66871;DHT22;53780;44.998;9.926;2022-09-29T16:51:24;20.83;61.86
66871;DHT22;53780;44.998;9.926;2022-09-29T16:54:41;20.63;62.76
66871;DHT22;53780;44.998;9.926;2022-09-29T16:58:03;20.61;62.86
66871;DHT22;53780;44.998;9.926;2022-09-29T17:01:11;20.61;62.30
66871;DHT22;53780;44.998;9.926;2022-09-29T17:04:15;20.56;62.45
66871;DHT22;53780;44.998;9.926;2022-09-29T17:07:22;20.53;63.05
66871;DHT22;53780;44.998;9.926;2022-09-29T17:10:26;20.53;62.60
66871;DHT22;53780;44.998;9.926;2022-09-29T17:13:34;20.48;62.56
66871;DHT22;53780;44.998;9.926;2022-09-29T17:16:38;20.35;62.93
66871;DHT22;53780;44.998;9.926;2022-09-29T17:19:44;20.10;63.80
66871;DHT22;53780;44.998;9.926;2022-09-29T17:22:48;19.97;64.75
66871;DHT22;53780;44.998;9.926;2022-09-29T17:25:52;19.98;64.98
66871;DHT22;53780;44.998;9.926;2022-09-29T17:29:16;20.01;65.64
66871;DHT22;53780;44.998;9.926;2022-09-29T17:32:20;19.98;66.01
66871;DHT22;53780;44.998;9.926;2022-09-29T17:35:43;19.89;66.31
66871;DHT22;53780;44.998;9.926;2022-09-29T17:38:49;19.90;66.01
66871;DHT22;53780;44.998;9.926;2022-09-29T17:41:53;19.79;66.44
66871;DHT22;53780;44.998;9.926;2022-09-29T17:44:57;19.77;67.19
66871;DHT22;53780;44.998;9.926;2022-09-29T17:48:02;19.76;67.67
66871;DHT22;53780;44.998;9.926;2022-09-29T17:51:12;19.69;68.26
66871;DHT22;53780;44.998;9.926;2022-09-29T17:54:16;19.62;69.12
66871;DHT22;53780;44.998;9.926;2022-09-29T17:57:26;19.55;69.06
66871;DHT22;53780;44.998;9.926;2022-09-29T18:00:36;19.43;69.59
66871;DHT22;53780;44.998;9.926;2022-09-29T18:03:41;19.32;70.45
66871;DHT22;53780;44.998;9.926;2022-09-29T18:06:45;19.16;71.30
66871;DHT22;53780;44.998;9.926;2022-09-29T18:09:49;19.10;71.83
66871;DHT22;53780;44.998;9.926;2022-09-29T18:12:53;18.91;73.32
66871;DHT22;53780;44.998;9.926;2022-09-29T18:15:58;18.70;74.47
66871;DHT22;53780;44.998;9.926;2022-09-29T18:19:02;18.60;75.10
66871;DHT22;53780;44.998;9.926;2022-09-29T18:22:07;18.48;75.71
66871;DHT22;53780;44.998;9.926;2022-09-29T18:25:11;18.38;76.13
66871;DHT22;53780;44.998;9.926;2022-09-29T18:28:17;18.30;76.23
66871;DHT22;53780;44.998;9.926;2022-09-29T18:31:26;18.13;76.89
66871;DHT22;53780;44.998;9.926;2022-09-29T18:34:31;18.05;77.27
66871;DHT22;53780;44.998;9.926;2022-09-29T18:37:36;18.01;76.68
66871;DHT22;53780;44.998;9.926;2022-09-29T18:40:40;17.88;75.79
66871;DHT22;53780;44.998;9.926;2022-09-29T18:43:43;17.64;75.38
66871;DHT22;53780;44.998;9.926;2022-09-29T18:46:47;17.56;75.54
66871;DHT22;53780;44.998;9.926;2022-09-29T18:49:51;17.46;75.84
66871;DHT22;53780;44.998;9.926;2022-09-29T18:52:56;17.35;76.34
66871;DHT22;53780;44.998;9.926;2022-09-29T18:56:02;17.29;76.74
66871;DHT22;53780;44.998;9.926;2022-09-29T18:59:10;17.29;76.88
66871;DHT22;53780;44.998;9.926;2022-09-29T19:02:14;17.25;77.11
66871;DHT22;53780;44.998;9.926;2022-09-29T19:05:23;17.26;77.24
66871;DHT22;53780;44.998;9.926;2022-09-29T19:08:27;17.26;77.25
66871;DHT22;53780;44.998;9.926;2022-09-29T19:11:32;17.25;77.28
66871;DHT22;53780;44.998;9.926;2022-09-29T19:14:36;17.25;77.26
66871;DHT22;53780;44.998;9.926;2022-09-29T19:17:41;17.19;77.25
66871;DHT22;53780;44.998;9.926;2022-09-29T19:20:45;17.11;77.64
66871;DHT22;53780;44.998;9.926;2022-09-29T19:23:48;17.11;77.38
66871;DHT22;53780;44.998;9.926;2022-09-29T19:26:52;17.15;77.15
66871;DHT22;53780;44.998;9.926;2022-09-29T19:29:56;17.14;77.23
66871;DHT22;53780;44.998;9.926;2022-09-29T19:33:00;17.16;76.66
66871;DHT22;53780;44.998;9.926;2022-09-29T19:36:07;17.07;77.37
66871;DHT22;53780;44.998;9.926;2022-09-29T19:39:13;16.98;77.69
66871;DHT22;53780;44.998;9.926;2022-09-29T19:42:17;16.91;77.94
66871;DHT22;53780;44.998;9.926;2022-09-29T19:45:20;16.92;77.86
66871;DHT22;53780;44.998;9.926;2022-09-29T19:48:24;16.92;78.10
66871;DHT22;53780;44.998;9.926;2022-09-29T19:51:28;16.91;78.12
66871;DHT22;53780;44.998;9.926;2022-09-29T19:54:50;16.80;78.50
66871;DHT22;53780;44.998;9.926;2022-09-29T19:57:54;16.74;78.78
66871;DHT22;53780;44.998;9.926;2022-09-29T20:00:58;16.84;78.74
66871;DHT22;53780;44.998;9.926;2022-09-29T20:04:02;16.89;78.27
66871;DHT22;53780;44.998;9.926;2022-09-29T20:07:06;16.95;77.80
66871;DHT22;53780;44.998;9.926;2022-09-29T20:10:15;16.94;77.58
66871;DHT22;53780;44.998;9.926;2022-09-29T20:13:19;16.95;77.76
66871;DHT22;53780;44.998;9.926;2022-09-29T20:16:22;16.95;77.79
66871;DHT22;53780;44.998;9.926;2022-09-29T20:19:28;16.91;77.78
66871;DHT22;53780;44.998;9.926;2022-09-29T20:22:35;16.88;77.89
66871;DHT22;53780;44.998;9.926;2022-09-29T20:25:39;16.82;78.20
66871;DHT22;53780;44.998;9.926;2022-09-29T20:28:43;16.80;78.28
66871;DHT22;53780;44.998;9.926;2022-09-29T20:31:51;16.75;78.52
66871;DHT22;53780;44.998;9.926;2022-09-29T20:34:56;16.70;78.49
66871;DHT22;53780;44.998;9.926;2022-09-29T20:38:00;16.64;78.31
66871;DHT22;53780;44.998;9.926;2022-09-29T20:41:06;16.60;77.90
66871;DHT22;53780;44.998;9.926;2022-09-29T20:44:11;16.63;77.55
66871;DHT22;53780;44.998;9.926;2022-09-29T20:47:16;16.59;77.48
